Time;durP1;ratioP1;P1;durP2;ratioP2;P2;SDS_P1;SDS_P2;PMS_P1;PMS_P2;Temp;Humidity;BMP_temperature;BMP_pressure;BME280_temperature;BME280_humidity;BME280_pressure;Samples;Min_cycle;Max_cycle;Signal;HPM_P1;HPM_P2
2023/12/24 00:02:21;;;;;;;10.20;2.42;;;11.10;92.30;;;;;;5064794;28;20045;-81
2023/12/24 00:04:49;;;;;;;7.50;2.60;;;11.10;92.40;;;;;;5064749;28;20024;-78
2023/12/24 00:07:15;;;;;;;6.95;2.58;;;11.20;92.40;;;;;;5063352;28;20032;-76
2023/12/24 00:09:41;;;;;;;9.70;2.60;;;11.10;92.40;;;;;;5059561;28;20377;-79
2023/12/24 00:12:07;;;;;;;8.68;2.20;;;11.10;92.40;;;;;;5059720;28;20056;-76
2023/12/24 00:14:32;;;;;;;7.93;2.50;;;11.10;92.50;;;;;;5065075;28;20028;-77
2023/12/24 00:16:58;;;;;;;8.35;2.20;;;11.10;92.40;;;;;;5062780;28;20045;-81
2023/12/24 00:19:23;;;;;;;7.57;2.15;;;11.20;92.10;;;;;;5056881;28;20359;-77
2023/12/24 00:21:50;;;;;;;8.05;2.30;;;11.20;92.10;;;;;;5060916;28;20048;-76
2023/12/24 00:24:16;;;;;;;7.50;2.20;;;11.20;92.10;;;;;;5054597;28;20024;-76
2023/12/24 00:26:42;;;;;;;7.32;2.28;;;11.30;92.10;;;;;;5039229;28;20367;-75
2023/12/24 00:29:07;;;;;;;10.45;2.58;;;11.30;92.00;;;;;;5052795;28;20040;-81
2023/12/24 00:31:33;;;;;;;6.82;2.08;;;11.30;92.00;;;;;;5057355;28;20336;-78
2023/12/24 00:33:59;;;;;;;10.07;2.42;;;11.40;92.10;;;;;;5037841;28;20033;-76
2023/12/24 00:36:24;;;;;;;7.03;2.20;;;11.40;92.10;;;;;;5061361;28;20048;-82
2023/12/24 00:38:50;;;;;;;7.57;2.50;;;11.40;91.80;;;;;;5066761;28;20075;-76
2023/12/24 00:41:19;;;;;;;8.63;2.28;;;11.50;91.80;;;;;;5062888;28;20126;-75
2023/12/24 00:43:45;;;;;;;6.00;2.00;;;11.50;91.80;;;;;;5047707;28;20030;-77
2023/12/24 00:46:14;;;;;;;5.88;2.60;;;11.50;91.80;;;;;;5059900;28;20048;-78
2023/12/24 00:48:41;;;;;;;8.30;2.88;;;11.50;91.90;;;;;;5059523;28;20028;-75
2023/12/24 00:51:06;;;;;;;6.13;2.00;;;11.50;91.90;;;;;;5060511;28;20044;-78
2023/12/24 00:53:32;;;;;;;8.50;2.78;;;11.50;92.00;;;;;;5058067;28;20025;-81
2023/12/24 00:55:58;;;;;;;8.35;2.53;;;11.50;91.90;;;;;;5059600;28;20040;-77
2023/12/24 00:58:26;;;;;;;6.50;1.75;;;11.60;92.20;;;;;;5058961;28;20108;-77
2023/12/24 01:00:51;;;;;;;8.13;2.30;;;11.60;92.30;;;;;;5051181;28;20485;-78
2023/12/24 01:03:17;;;;;;;6.47;1.98;;;11.50;92.80;;;;;;5044816;28;20094;-81
2023/12/24 01:05:42;;;;;;;6.00;2.28;;;11.50;93.40;;;;;;5055088;28;20036;-75
2023/12/24 01:08:08;;;;;;;7.85;2.47;;;11.40;93.70;;;;;;5059747;28;21297;-74
2023/12/24 01:10:34;;;;;;;9.52;2.55;;;11.40;94.10;;;;;;5057394;28;20396;-80
2023/12/24 01:12:59;;;;;;;7.03;2.58;;;11.30;94.50;;;;;;5062535;28;20063;-76
2023/12/24 01:15:25;;;;;;;7.88;2.17;;;11.30;94.80;;;;;;5052065;28;20041;-77
2023/12/24 01:17:50;;;;;;;5.35;2.45;;;11.30;95.00;;;;;;5039919;28;20683;-83
2023/12/24 01:20:16;;;;;;;6.75;2.50;;;11.20;95.00;;;;;;5056098;28;20036;-80
2023/12/24 01:22:42;;;;;;;8.07;2.50;;;11.30;95.00;;;;;;5052817;28;20047;-80
2023/12/24 01:25:09;;;;;;;9.68;2.90;;;11.30;94.90;;;;;;5066040;28;20036;-76
2023/12/24 01:27:35;;;;;;;9.52;2.63;;;11.30;94.90;;;;;;5043975;28;20025;-76
2023/12/24 01:30:02;;;;;;;6.30;2.30;;;11.30;94.80;;;;;;5055298;28;20056;-80
2023/12/24 01:32:28;;;;;;;6.40;2.33;;;11.30;95.00;;;;;;5040934;28;20547;-76
2023/12/24 01:34:53;;;;;;;9.13;2.42;;;11.30;95.20;;;;;;5058958;28;20128;-77
2023/12/24 01:37:19;;;;;;;6.63;2.22;;;11.40;95.30;;;;;;5060755;28;20036;-83
2023/12/24 01:39:44;;;;;;;8.38;2.42;;;11.30;95.40;;;;;;5057294;28;20477;-80
2023/12/24 01:42:10;;;;;;;6.93;2.53;;;11.30;95.70;;;;;;5057749;28;20376;-80
2023/12/24 01:44:35;;;;;;;8.10;2.63;;;11.30;96.00;;;;;;5061089;28;20028;-77
2023/12/24 01:47:01;;;;;;;6.47;2.35;;;11.20;96.30;;;;;;5041296;28;20044;-75
2023/12/24 01:49:27;;;;;;;7.53;2.92;;;11.20;96.40;;;;;;5058162;28;20075;-75
2023/12/24 01:51:53;;;;;;;10.05;3.15;;;11.20;96.50;;;;;;5065575;28;20036;-77
2023/12/24 01:54:19;;;;;;;11.07;3.80;;;11.20;96.70;;;;;;5045346;28;20517;-80
2023/12/24 01:56:45;;;;;;;9.02;3.30;;;11.20;96.90;;;;;;5061066;28;20013;-79
2023/12/24 01:59:11;;;;;;;11.13;3.40;;;11.20;97.00;;;;;;5071697;28;20116;-83
2023/12/24 02:01:37;;;;;;;10.65;3.20;;;11.20;97.30;;;;;;5086685;28;20036;-82
2023/12/24 02:04:03;;;;;;;11.55;3.30;;;11.20;97.50;;;;;;5071017;28;20028;-75
2023/12/24 02:06:30;;;;;;;12.38;2.97;;;11.20;97.50;;;;;;5063927;28;20063;-77
2023/12/24 02:08:56;;;;;;;8.55;3.03;;;11.10;97.70;;;;;;5063708;28;20033;-76
2023/12/24 02:11:21;;;;;;;8.80;2.60;;;11.10;97.80;;;;;;5064242;28;20039;-75
2023/12/24 02:13:47;;;;;;;11.07;2.70;;;11.10;97.80;;;;;;5068031;28;20656;-78
2023/12/24 02:16:19;;;;;;;12.25;2.85;;;11.10;97.90;;;;;;5061701;28;20063;-75
2023/12/24 02:18:46;;;;;;;7.93;2.78;;;11.10;98.00;;;;;;5059084;28;20550;-76
2023/12/24 02:21:11;;;;;;;8.98;2.60;;;11.10;98.10;;;;;;5064339;28;20509;-75
2023/12/24 02:23:37;;;;;;;7.25;2.80;;;11.10;98.10;;;;;;5067372;28;20047;-81
2023/12/24 02:26:28;;;;;;;10.57;2.63;;;11.10;98.10;;;;;;5063495;28;20087;-76
2023/12/24 02:29:01;;;;;;;11.95;2.72;;;11.10;98.20;;;;;;5059742;28;20383;-77
2023/12/24 02:31:31;;;;;;;8.75;2.17;;;11.10;98.30;;;;;;5060934;28;20041;-76
2023/12/24 02:34:00;;;;;;;7.78;2.25;;;11.10;98.30;;;;;;5066852;28;20123;-74
2023/12/24 02:36:26;;;;;;;8.18;2.22;;;11.10;98.40;;;;;;5067380;28;20485;-77
2023/12/24 02:38:52;;;;;;;14.13;3.65;;;11.10;98.50;;;;;;5065780;28;20040;-77
2023/12/24 02:41:17;;;;;;;8.20;2.33;;;11.10;98.70;;;;;;5066274;28;20495;-77
2023/12/24 02:43:43;;;;;;;9.98;2.95;;;11.10;98.70;;;;;;5052296;28;20086;-81
2023/12/24 02:46:08;;;;;;;8.82;2.28;;;11.10;98.80;;;;;;5063587;28;20096;-81
2023/12/24 02:48:34;;;;;;;10.98;3.15;;;11.10;98.80;;;;;;5066490;28;20380;-76
2023/12/24 02:51:00;;;;;;;9.98;2.50;;;11.10;98.80;;;;;;5063828;28;20292;-80
2023/12/24 02:53:25;;;;;;;10.90;2.83;;;11.10;98.80;;;;;;5064876;28;20060;-74
2023/12/24 02:55:51;;;;;;;7.30;2.67;;;11.10;98.90;;;;;;5057514;28;20127;-77
2023/12/24 02:58:17;;;;;;;14.18;3.28;;;11.10;98.90;;;;;;5046233;28;20021;-76
2023/12/24 03:00:42;;;;;;;15.27;3.47;;;11.10;98.90;;;;;;5063719;28;20126;-76
2023/12/24 03:03:08;;;;;;;14.95;3.53;;;11.10;98.90;;;;;;5055121;28;20075;-78
2023/12/24 03:05:34;;;;;;;15.82;4.00;;;11.10;98.90;;;;;;5057326;28;20033;-74
2023/12/24 03:08:00;;;;;;;15.55;3.88;;;11.10;98.90;;;;;;5066092;28;20035;-74
2023/12/24 03:10:25;;;;;;;13.75;4.40;;;11.10;98.90;;;;;;5062219;28;20709;-75
2023/12/24 03:12:51;;;;;;;12.18;3.60;;;11.10;98.90;;;;;;5061680;28;20370;-78
2023/12/24 03:15:16;;;;;;;16.20;4.18;;;11.10;98.90;;;;;;5041751;28;20048;-77
2023/12/24 03:17:42;;;;;;;16.63;4.13;;;11.10;99.00;;;;;;5074188;28;20698;-75
2023/12/24 03:20:08;;;;;;;21.52;5.35;;;11.10;99.00;;;;;;5060829;28;20033;-76
2023/12/24 03:22:34;;;;;;;13.35;4.45;;;11.10;98.90;;;;;;5047079;28;20032;-79
2023/12/24 03:25:00;;;;;;;19.65;5.20;;;11.10;98.80;;;;;;5061767;28;20033;-75
2023/12/24 03:27:26;;;;;;;22.30;5.50;;;11.10;98.90;;;;;;5061423;28;20037;-77
2023/12/24 03:29:52;;;;;;;16.88;4.60;;;11.20;98.90;;;;;;5063740;28;20055;-76
2023/12/24 03:32:17;;;;;;;19.02;5.57;;;11.20;98.90;;;;;;5057806;28;20107;-75
2023/12/24 03:34:43;;;;;;;24.73;6.93;;;11.10;98.90;;;;;;5059918;28;20028;-79
2023/12/24 03:37:08;;;;;;;23.02;4.78;;;11.10;98.90;;;;;;5060605;28;20115;-80
2023/12/24 03:39:34;;;;;;;23.30;5.57;;;11.10;99.00;;;;;;5061064;28;20025;-76
2023/12/24 03:42:00;;;;;;;24.00;6.25;;;11.10;99.00;;;;;;5039853;28;20105;-80
2023/12/24 03:44:25;;;;;;;22.70;5.47;;;11.20;98.90;;;;;;5054466;28;20427;-78
2023/12/24 03:46:51;;;;;;;23.30;6.13;;;11.20;98.90;;;;;;5057652;28;20051;-81
2023/12/24 03:49:16;;;;;;;21.40;5.97;;;11.20;98.90;;;;;;5060218;28;20025;-75
2023/12/24 03:51:42;;;;;;;22.45;5.78;;;11.20;98.90;;;;;;5064258;28;20385;-77
2023/12/24 03:54:08;;;;;;;24.38;7.07;;;11.20;98.80;;;;;;5045511;28;20078;-82
2023/12/24 03:56:33;;;;;;;23.90;4.93;;;11.20;98.90;;;;;;5041541;28;20029;-74
2023/12/24 03:58:59;;;;;;;21.85;5.82;;;11.20;98.90;;;;;;5063732;28;20624;-75
2023/12/24 04:01:26;;;;;;;25.05;5.32;;;11.20;98.90;;;;;;5057567;28;20039;-78
2023/12/24 04:03:51;;;;;;;19.42;5.22;;;11.20;98.90;;;;;;5053662;28;20862;-77
2023/12/24 04:06:17;;;;;;;21.40;5.38;;;11.20;98.90;;;;;;5054384;28;20033;-76
2023/12/24 04:08:43;;;;;;;15.55;4.72;;;11.20;98.90;;;;;;5044521;28;20033;-78
2023/12/24 04:11:12;;;;;;;19.80;4.60;;;11.20;98.90;;;;;;5057194;28;20529;-75
2023/12/24 04:13:38;;;;;;;23.92;4.53;;;11.20;99.00;;;;;;5060898;28;20024;-77
2023/12/24 04:16:05;;;;;;;17.58;3.83;;;11.20;98.90;;;;;;5058031;28;20368;-78
2023/12/24 04:18:30;;;;;;;18.77;4.20;;;11.20;98.90;;;;;;5055142;28;20027;-74
2023/12/24 04:20:56;;;;;;;14.82;3.88;;;11.30;98.80;;;;;;5043295;28;20036;-81
2023/12/24 04:23:21;;;;;;;13.63;3.28;;;11.20;98.90;;;;;;5043075;28;20047;-82
2023/12/24 04:25:47;;;;;;;17.80;3.92;;;11.30;98.90;;;;;;5058126;28;20025;-76
2023/12/24 04:28:13;;;;;;;17.67;4.15;;;11.30;98.80;;;;;;5061242;28;20099;-75
2023/12/24 04:30:38;;;;;;;14.40;4.07;;;11.30;98.80;;;;;;5059527;28;20036;-75
2023/12/24 04:33:04;;;;;;;15.15;3.65;;;11.20;98.80;;;;;;5063701;28;20031;-84
2023/12/24 04:35:30;;;;;;;10.70;2.83;;;11.20;98.80;;;;;;5053883;28;20207;-82
2023/12/24 04:37:55;;;;;;;9.45;2.92;;;11.20;98.80;;;;;;5059785;28;20043;-79
2023/12/24 04:40:21;;;;;;;11.15;3.13;;;11.30;98.70;;;;;;5057165;28;20508;-81
2023/12/24 04:42:47;;;;;;;9.52;2.70;;;11.20;98.60;;;;;;5056212;28;20112;-80
2023/12/24 04:45:13;;;;;;;12.23;2.83;;;11.20;98.60;;;;;;5059473;28;20569;-74
2023/12/24 04:47:39;;;;;;;10.02;3.00;;;11.30;98.60;;;;;;5043290;28;20479;-75
2023/12/24 04:50:05;;;;;;;8.35;2.50;;;11.30;98.60;;;;;;5059873;28;20115;-76
2023/12/24 04:52:35;;;;;;;7.10;2.15;;;11.30;98.50;;;;;;5072059;28;20036;-81
2023/12/24 04:55:02;;;;;;;6.03;2.22;;;11.30;98.50;;;;;;5062841;28;20638;-74
2023/12/24 04:57:28;;;;;;;6.35;1.92;;;11.30;98.50;;;;;;5044938;28;20064;-74
2023/12/24 04:59:54;;;;;;;7.40;2.13;;;11.30;98.50;;;;;;5034386;28;20551;-81
2023/12/24 05:02:19;;;;;;;6.55;2.15;;;11.30;98.50;;;;;;5055027;28;20048;-76
2023/12/24 05:04:45;;;;;;;6.57;2.30;;;11.30;98.50;;;;;;5061997;28;20032;-74
2023/12/24 05:07:10;;;;;;;4.88;2.20;;;11.30;98.50;;;;;;5054548;28;20043;-78
2023/12/24 05:09:39;;;;;;;6.40;2.20;;;11.30;98.60;;;;;;5061558;28;20028;-75
2023/12/24 05:12:05;;;;;;;5.97;2.25;;;11.30;98.60;;;;;;5060377;28;20469;-74
2023/12/24 05:14:36;;;;;;;7.60;2.70;;;11.30;98.60;;;;;;5052783;28;20112;-79
2023/12/24 05:17:02;;;;;;;7.60;2.50;;;11.30;98.60;;;;;;5055360;28;20078;-75
2023/12/24 05:19:28;;;;;;;6.55;1.83;;;11.30;98.60;;;;;;5062864;28;20036;-76
2023/12/24 05:21:54;;;;;;;5.53;1.48;;;11.30;98.70;;;;;;5059519;28;20033;-82
2023/12/24 05:24:19;;;;;;;6.80;1.83;;;11.30;98.60;;;;;;5063194;28;20444;-79
2023/12/24 05:26:45;;;;;;;6.78;2.15;;;11.30;98.60;;;;;;5041300;28;20031;-74
2023/12/24 05:29:10;;;;;;;5.30;2.20;;;11.30;98.60;;;;;;5060872;28;20043;-81
2023/12/24 05:31:40;;;;;;;5.32;1.92;;;11.30;98.60;;;;;;5057369;28;20200;-74
2023/12/24 05:34:06;;;;;;;5.32;1.88;;;11.40;98.60;;;;;;5058054;28;20456;-77
2023/12/24 05:36:33;;;;;;;7.47;1.92;;;11.30;98.60;;;;;;5047061;28;20055;-76
2023/12/24 05:38:59;;;;;;;5.85;2.10;;;11.40;98.70;;;;;;5062068;28;20121;-80
2023/12/24 05:41:25;;;;;;;5.10;1.92;;;11.30;98.60;;;;;;5053159;28;20056;-81
2023/12/24 05:43:50;;;;;;;4.05;1.90;;;11.30;98.60;;;;;;5054777;28;20021;-75
2023/12/24 05:46:16;;;;;;;4.72;2.22;;;11.40;98.50;;;;;;5053032;28;20839;-75
2023/12/24 05:48:42;;;;;;;6.72;2.00;;;11.40;98.50;;;;;;5046101;28;20021;-78
2023/12/24 05:51:08;;;;;;;4.80;1.88;;;11.50;98.50;;;;;;5063412;28;20033;-78
2023/12/24 05:53:33;;;;;;;5.85;1.80;;;11.40;98.40;;;;;;5069472;28;20036;-81
2023/12/24 05:55:59;;;;;;;4.05;1.83;;;11.40;98.40;;;;;;5063672;28;20097;-77
2023/12/24 05:58:25;;;;;;;4.13;1.92;;;11.40;98.40;;;;;;5040084;28;20309;-77
2023/12/24 06:00:54;;;;;;;5.22;1.90;;;11.40;98.40;;;;;;5060142;28;20333;-78
2023/12/24 06:03:20;;;;;;;4.15;1.92;;;11.40;98.40;;;;;;5062404;28;20037;-75
2023/12/24 06:05:45;;;;;;;6.05;2.10;;;11.40;98.30;;;;;;5054652;28;20025;-76
2023/12/24 06:08:16;;;;;;;4.57;1.98;;;11.40;98.30;;;;;;5065713;28;20034;-80
2023/12/24 06:10:43;;;;;;;5.60;2.05;;;11.40;98.40;;;;;;5054768;28;20029;-76
2023/12/24 06:13:08;;;;;;;5.45;1.88;;;11.50;98.50;;;;;;5066470;28;20078;-75
2023/12/24 06:15:34;;;;;;;3.97;2.00;;;11.50;98.40;;;;;;5056687;28;20127;-80
2023/12/24 06:18:01;;;;;;;6.95;2.60;;;11.40;98.50;;;;;;5060993;28;20033;-76
2023/12/24 06:20:32;;;;;;;3.85;1.80;;;11.40;98.60;;;;;;5053000;28;20052;-75
2023/12/24 06:22:58;;;;;;;7.55;2.78;;;11.40;98.60;;;;;;5043339;28;20775;-80
2023/12/24 06:25:25;;;;;;;5.68;1.98;;;11.50;98.70;;;;;;5051236;28;20029;-76
2023/12/24 06:27:50;;;;;;;7.22;2.10;;;11.40;98.80;;;;;;5038130;28;20128;-79
2023/12/24 06:30:16;;;;;;;11.02;2.75;;;11.50;98.80;;;;;;5044142;28;20521;-80
2023/12/24 06:32:42;;;;;;;7.95;2.55;;;11.50;98.80;;;;;;5063133;28;20020;-75
2023/12/24 06:35:09;;;;;;;7.13;2.63;;;11.50;98.80;;;;;;5059692;28;20358;-78
2023/12/24 06:37:34;;;;;;;9.45;3.17;;;11.50;98.90;;;;;;5048639;28;20020;-78
2023/12/24 06:40:00;;;;;;;8.68;3.17;;;11.50;98.90;;;;;;5061000;28;20048;-78
2023/12/24 06:42:26;;;;;;;8.00;2.90;;;11.50;99.00;;;;;;5044557;28;20637;-75
2023/12/24 06:44:51;;;;;;;9.88;3.53;;;11.50;99.10;;;;;;5061365;28;20052;-84
2023/12/24 06:47:17;;;;;;;8.82;3.20;;;11.50;99.20;;;;;;5076428;28;20025;-84
2023/12/24 06:49:44;;;;;;;7.80;2.70;;;11.50;99.20;;;;;;5069639;28;20046;-86
2023/12/24 06:52:10;;;;;;;6.13;3.03;;;11.50;99.20;;;;;;5082551;28;20044;-75
2023/12/24 06:54:36;;;;;;;8.10;2.90;;;11.60;99.30;;;;;;5063916;28;20032;-79
2023/12/24 06:57:02;;;;;;;6.15;2.88;;;11.60;99.30;;;;;;5064032;28;20029;-79
2023/12/24 06:59:28;;;;;;;10.15;3.38;;;11.60;99.30;;;;;;5065083;28;20126;-78
2023/12/24 07:01:54;;;;;;;7.97;3.78;;;11.60;99.40;;;;;;5058707;28;20116;-76
2023/12/24 07:04:19;;;;;;;9.82;3.40;;;11.60;99.40;;;;;;5046346;28;20036;-76
2023/12/24 07:06:45;;;;;;;7.78;3.28;;;11.60;99.40;;;;;;5053774;28;20035;-76
2023/12/24 07:09:11;;;;;;;9.48;2.72;;;11.60;99.50;;;;;;5064853;28;20478;-84
2023/12/24 07:11:36;;;;;;;7.20;2.70;;;11.60;99.40;;;;;;5058367;28;20292;-76
2023/12/24 07:14:03;;;;;;;6.80;2.83;;;11.60;99.50;;;;;;5048859;28;20017;-76
2023/12/24 07:16:29;;;;;;;8.68;3.20;;;11.60;99.40;;;;;;5038930;28;20531;-79
2023/12/24 07:18:54;;;;;;;6.93;3.08;;;11.60;99.50;;;;;;5046400;28;20029;-75
2023/12/24 07:21:20;;;;;;;6.57;2.78;;;11.60;99.50;;;;;;5044837;28;20136;-79
2023/12/24 07:23:46;;;;;;;7.07;3.00;;;11.50;99.60;;;;;;5040840;28;20393;-75
2023/12/24 07:26:12;;;;;;;6.22;2.45;;;11.60;99.60;;;;;;5041946;28;20037;-76
2023/12/24 07:28:38;;;;;;;5.60;2.70;;;11.60;99.60;;;;;;5039958;28;20024;-82
2023/12/24 07:31:03;;;;;;;8.95;3.05;;;11.60;99.60;;;;;;5036702;28;20036;-78
2023/12/24 07:33:29;;;;;;;5.43;2.63;;;11.60;99.60;;;;;;5038967;28;20037;-77
2023/12/24 07:35:55;;;;;;;9.13;3.28;;;11.60;99.60;;;;;;5041553;28;20510;-75
2023/12/24 07:38:21;;;;;;;6.53;3.00;;;11.60;99.60;;;;;;5043814;28;20067;-77
2023/12/24 07:40:46;;;;;;;9.25;3.05;;;11.60;99.50;;;;;;5041303;28;20369;-79
2023/12/24 07:43:12;;;;;;;10.82;3.22;;;11.60;99.60;;;;;;5035405;28;20021;-75
2023/12/24 07:45:37;;;;;;;10.70;3.70;;;11.60;99.60;;;;;;5031929;28;20042;-76
2023/12/24 07:48:03;;;;;;;10.57;3.40;;;11.70;99.60;;;;;;5036011;28;20084;-84
2023/12/24 07:50:29;;;;;;;8.05;4.22;;;11.70;99.60;;;;;;5039204;28;20052;-77
2023/12/24 07:52:55;;;;;;;11.40;4.13;;;11.70;99.60;;;;;;5040264;28;20126;-75
2023/12/24 07:55:20;;;;;;;9.30;3.17;;;11.70;99.60;;;;;;5043938;28;20063;-77
2023/12/24 07:57:46;;;;;;;12.60;3.83;;;11.80;99.60;;;;;;5040508;28;20029;-75
2023/12/24 08:00:13;;;;;;;11.82;4.13;;;11.80;99.60;;;;;;5039321;28;20112;-79
2023/12/24 08:02:39;;;;;;;10.30;3.78;;;11.80;99.60;;;;;;5041037;28;20044;-78
2023/12/24 08:05:05;;;;;;;10.73;3.90;;;11.80;99.60;;;;;;5043352;28;20508;-76
2023/12/24 08:07:31;;;;;;;13.88;3.75;;;11.80;99.60;;;;;;5039420;28;20021;-81
2023/12/24 08:09:56;;;;;;;10.25;3.53;;;11.90;99.60;;;;;;5033964;28;20083;-74
2023/12/24 08:12:22;;;;;;;12.73;4.57;;;11.90;99.60;;;;;;5037854;28;20040;-77
2023/12/24 08:14:48;;;;;;;13.35;4.28;;;12.00;99.60;;;;;;5044823;28;20044;-78
2023/12/24 08:17:13;;;;;;;13.38;4.03;;;12.00;99.60;;;;;;5056020;28;20534;-76
2023/12/24 08:19:39;;;;;;;14.73;4.25;;;12.10;99.50;;;;;;5059736;28;20031;-79
2023/12/24 08:22:04;;;;;;;13.63;4.25;;;12.10;99.50;;;;;;5039729;28;20380;-77
2023/12/24 08:24:31;;;;;;;12.60;3.70;;;12.10;99.40;;;;;;5062827;28;20473;-74
2023/12/24 08:26:57;;;;;;;11.95;3.78;;;12.10;99.40;;;;;;5054143;28;20087;-80
2023/12/24 08:29:22;;;;;;;9.23;3.40;;;12.10;99.40;;;;;;5044843;28;20806;-76
2023/12/24 08:31:48;;;;;;;15.00;4.35;;;12.20;99.30;;;;;;5059295;28;20047;-74
2023/12/24 08:34:14;;;;;;;10.77;3.40;;;12.20;99.30;;;;;;5060408;28;20059;-76
2023/12/24 08:36:39;;;;;;;14.70;3.63;;;12.20;99.30;;;;;;5059572;28;20040;-80
2023/12/24 08:39:05;;;;;;;12.40;3.50;;;12.30;99.20;;;;;;5059501;28;20035;-78
2023/12/24 08:41:31;;;;;;;14.32;3.33;;;12.30;99.20;;;;;;5059734;28;20029;-80
2023/12/24 08:43:57;;;;;;;11.48;3.28;;;12.30;99.10;;;;;;5062937;28;20481;-76
2023/12/24 08:46:23;;;;;;;13.38;3.63;;;12.40;99.00;;;;;;5061375;28;20044;-82
2023/12/24 08:48:48;;;;;;;9.82;3.30;;;12.30;99.00;;;;;;5061720;28;20107;-76
2023/12/24 08:51:14;;;;;;;10.05;3.40;;;12.40;99.00;;;;;;5040175;28;20079;-77
2023/12/24 08:53:40;;;;;;;10.90;2.97;;;12.40;99.00;;;;;;5053701;28;20362;-77
2023/12/24 08:56:06;;;;;;;9.65;2.95;;;12.40;98.90;;;;;;5052406;28;20029;-80
2023/12/24 08:58:31;;;;;;;8.60;3.13;;;12.40;99.00;;;;;;5053280;28;20392;-82
2023/12/24 09:00:57;;;;;;;9.73;3.20;;;12.50;98.90;;;;;;5061960;28;20129;-75
2023/12/24 09:03:23;;;;;;;12.35;3.03;;;12.50;98.80;;;;;;5041881;28;20060;-77
2023/12/24 09:05:48;;;;;;;11.73;3.50;;;12.50;98.80;;;;;;5052467;28;20045;-75
2023/12/24 09:08:14;;;;;;;13.82;3.85;;;12.50;98.80;;;;;;5058730;28;20024;-81
2023/12/24 09:10:41;;;;;;;12.32;3.67;;;12.50;98.80;;;;;;5054343;28;20579;-77
2023/12/24 09:13:07;;;;;;;10.15;3.83;;;12.50;98.80;;;;;;5042614;28;20661;-76
2023/12/24 09:15:32;;;;;;;8.30;3.42;;;12.50;98.80;;;;;;5035585;28;20067;-78
2023/12/24 09:17:58;;;;;;;6.63;3.08;;;12.50;98.80;;;;;;5061471;28;20036;-81
2023/12/24 09:20:23;;;;;;;10.48;3.80;;;12.50;98.70;;;;;;5052930;28;20132;-74
2023/12/24 09:22:49;;;;;;;10.23;3.88;;;12.50;98.70;;;;;;5053743;28;20562;-77
2023/12/24 09:25:15;;;;;;;10.52;3.95;;;12.50;98.60;;;;;;5059856;28;20552;-74
2023/12/24 09:27:40;;;;;;;9.65;3.42;;;12.60;98.60;;;;;;5062396;28;20292;-74
2023/12/24 09:30:06;;;;;;;10.45;3.65;;;12.60;98.60;;;;;;5057514;28;20034;-83
2023/12/24 09:32:32;;;;;;;10.05;3.72;;;12.50;98.60;;;;;;5059320;28;20074;-75
2023/12/24 09:34:58;;;;;;;10.63;3.70;;;12.50;98.50;;;;;;5058432;28;20036;-77
2023/12/24 09:37:25;;;;;;;8.48;3.35;;;12.60;98.60;;;;;;5038577;28;20051;-79
2023/12/24 09:39:52;;;;;;;7.20;2.80;;;12.60;98.50;;;;;;5044379;28;20059;-75
2023/12/24 09:42:18;;;;;;;9.48;2.60;;;12.60;98.50;;;;;;5056150;28;20412;-74
2023/12/24 09:44:44;;;;;;;10.57;3.05;;;12.60;98.50;;;;;;5053294;28;20044;-82
2023/12/24 09:47:10;;;;;;;6.97;2.65;;;12.50;98.50;;;;;;5057824;28;20132;-77
2023/12/24 09:49:36;;;;;;;6.65;2.67;;;12.60;98.50;;;;;;5055351;28;20710;-76
2023/12/24 09:52:02;;;;;;;8.98;3.50;;;12.60;98.40;;;;;;5060983;28;20033;-74
2023/12/24 09:54:28;;;;;;;8.07;3.08;;;12.60;98.40;;;;;;5060223;28;20028;-75
2023/12/24 09:56:54;;;;;;;9.60;3.55;;;12.60;98.40;;;;;;5058912;28;20443;-79
2023/12/24 09:59:20;;;;;;;8.95;3.13;;;12.60;98.40;;;;;;5057350;28;20071;-78
2023/12/24 10:01:46;;;;;;;8.75;2.80;;;12.60;98.50;;;;;;5054508;28;20060;-75
2023/12/24 10:04:14;;;;;;;10.50;3.20;;;12.60;98.50;;;;;;5059340;28;20021;-83
2023/12/24 10:06:53;;;;;;;8.35;3.20;;;12.60;98.40;;;;;;5033824;28;20098;-73
2023/12/24 10:09:23;;;;;;;8.63;3.28;;;12.60;98.40;;;;;;5055570;28;20061;-75
2023/12/24 10:12:05;;;;;;;8.98;3.38;;;12.60;98.40;;;;;;5058412;28;20028;-71
2023/12/24 10:14:31;;;;;;;8.68;3.00;;;12.60;98.40;;;;;;5041199;28;20043;-74
2023/12/24 10:16:59;;;;;;;11.98;4.00;;;12.60;98.50;;;;;;5052595;28;20068;-74
2023/12/24 10:19:27;;;;;;;6.45;2.80;;;12.60;98.40;;;;;;5039518;28;20511;-73
2023/12/24 10:22:05;;;;;;;10.98;3.67;;;12.60;98.50;;;;;;5058542;28;20032;-72
2023/12/24 10:24:32;;;;;;;7.55;3.05;;;12.60;98.50;;;;;;5054654;28;20036;-73
2023/12/24 10:27:09;;;;;;;9.77;3.20;;;12.70;98.40;;;;;;5051451;28;20079;-73
2023/12/24 10:29:38;;;;;;;11.63;3.92;;;12.70;98.40;;;;;;5053842;28;20024;-74
2023/12/24 10:32:04;;;;;;;8.80;3.28;;;12.70;98.60;;;;;;5057027;28;20032;-75
2023/12/24 10:34:32;;;;;;;8.50;3.15;;;12.70;98.60;;;;;;5055305;28;20202;-72
2023/12/24 10:36:59;;;;;;;11.80;3.80;;;12.70;98.60;;;;;;5055789;28;20060;-72
2023/12/24 10:39:25;;;;;;;10.05;3.28;;;12.70;98.50;;;;;;5062641;28;20683;-76
2023/12/24 10:41:56;;;;;;;11.18;3.85;;;12.80;98.50;;;;;;5054833;28;20217;-73
2023/12/24 10:44:22;;;;;;;9.90;3.47;;;12.80;98.50;;;;;;5057804;28;20107;-74
2023/12/24 10:46:48;;;;;;;9.50;3.20;;;12.80;98.50;;;;;;5057163;28;20127;-74
2023/12/24 10:49:14;;;;;;;8.77;3.42;;;12.80;98.50;;;;;;5058704;28;20461;-73
2023/12/24 10:51:39;;;;;;;13.25;4.00;;;12.80;98.50;;;;;;5048255;28;20408;-72
2023/12/24 10:54:07;;;;;;;9.13;3.00;;;12.90;98.50;;;;;;5053798;28;20035;-75
2023/12/24 10:56:56;;;;;;;9.25;2.83;;;12.90;98.40;;;;;;5052610;28;20037;-73
2023/12/24 10:59:54;;;;;;;12.30;3.38;;;13.00;98.40;;;;;;5053548;28;20040;-78
2023/12/24 11:02:20;;;;;;;9.55;2.90;;;13.00;98.20;;;;;;5055045;28;20124;-74
2023/12/24 11:04:48;;;;;;;9.40;3.20;;;13.10;98.20;;;;;;5059927;28;20022;-74
2023/12/24 11:07:32;;;;;;;9.30;2.40;;;13.10;98.10;;;;;;5061108;28;20032;-74
2023/12/24 11:10:02;;;;;;;7.03;2.23;;;13.10;98.00;;;;;;5054048;28;20128;-76
2023/12/24 11:12:30;;;;;;;7.47;2.78;;;13.10;97.90;;;;;;5050719;28;20296;-73
2023/12/24 11:14:57;;;;;;;6.10;2.30;;;13.10;97.70;;;;;;5056852;28;20114;-75
2023/12/24 11:17:37;;;;;;;9.13;2.95;;;13.20;97.60;;;;;;5057763;28;20057;-76
2023/12/24 11:20:19;;;;;;;7.28;2.25;;;13.20;97.60;;;;;;5062276;28;20045;-74
2023/12/24 11:23:03;;;;;;;10.57;2.63;;;13.20;97.60;;;;;;5059665;28;20036;-72
2023/12/24 11:25:36;;;;;;;11.80;2.70;;;13.20;97.70;;;;;;5047943;28;20045;-75
2023/12/24 11:28:02;;;;;;;9.60;3.00;;;13.20;97.60;;;;;;5056683;28;20017;-77
2023/12/24 11:30:27;;;;;;;5.63;2.28;;;13.30;97.50;;;;;;5054446;28;20112;-76
2023/12/24 11:32:53;;;;;;;8.00;2.25;;;13.30;97.40;;;;;;5059023;28;20111;-72
2023/12/24 11:35:53;;;;;;;9.82;2.22;;;13.30;97.50;;;;;;5049803;28;20056;-74
2023/12/24 11:38:34;;;;;;;9.00;2.78;;;13.30;97.50;;;;;;5071746;28;20027;-79
2023/12/24 11:41:10;;;;;;;7.95;2.80;;;13.30;97.40;;;;;;5065407;28;20060;-77
2023/12/24 11:43:37;;;;;;;9.10;2.97;;;13.30;97.40;;;;;;5033411;28;20025;-74
2023/12/24 11:46:04;;;;;;;8.27;2.13;;;13.30;97.30;;;;;;5057902;28;20044;-72
2023/12/24 11:48:32;;;;;;;6.40;2.63;;;13.30;97.30;;;;;;5062721;28;20029;-73
2023/12/24 11:51:09;;;;;;;8.57;2.60;;;13.30;97.30;;;;;;5057116;28;20052;-76
2023/12/24 11:53:36;;;;;;;7.72;2.30;;;13.30;97.30;;;;;;5056222;28;20034;-75
2023/12/24 11:56:12;;;;;;;6.45;2.55;;;13.30;97.20;;;;;;5048117;28;20021;-74
2023/12/24 11:58:39;;;;;;;6.32;2.50;;;13.30;97.40;;;;;;5060655;28;20048;-74
2023/12/24 12:01:05;;;;;;;6.32;2.38;;;13.20;97.30;;;;;;5049125;28;20043;-76
2023/12/24 12:03:32;;;;;;;5.68;2.40;;;13.20;97.30;;;;;;5044703;28;20020;-75
2023/12/24 12:05:59;;;;;;;9.80;2.60;;;13.30;97.20;;;;;;5050827;28;20039;-75
2023/12/24 12:08:24;;;;;;;8.15;2.80;;;13.30;97.20;;;;;;5060007;28;20016;-73
2023/12/24 12:10:51;;;;;;;6.05;2.30;;;13.20;97.20;;;;;;5056034;28;20036;-76
2023/12/24 12:13:17;;;;;;;7.25;2.75;;;13.30;97.00;;;;;;5052118;28;20029;-74
2023/12/24 12:15:42;;;;;;;7.43;2.90;;;13.20;96.90;;;;;;5051714;28;20551;-75
2023/12/24 12:18:08;;;;;;;4.97;2.35;;;13.30;96.90;;;;;;5057790;28;20017;-75
2023/12/24 12:20:34;;;;;;;5.20;2.15;;;13.30;96.70;;;;;;5051836;28;20029;-75
2023/12/24 12:23:00;;;;;;;5.70;2.45;;;13.20;96.50;;;;;;5062598;28;20032;-73
2023/12/24 12:25:26;;;;;;;5.07;1.88;;;13.30;96.60;;;;;;5049337;28;20137;-74
2023/12/24 12:27:52;;;;;;;4.10;1.60;;;13.40;96.20;;;;;;5063762;28;20109;-75
2023/12/24 12:30:19;;;;;;;7.60;2.60;;;13.40;96.10;;;;;;5056027;28;20035;-74
2023/12/24 12:32:45;;;;;;;4.82;2.00;;;13.40;96.10;;;;;;5059718;28;20028;-74
2023/12/24 12:35:11;;;;;;;6.53;1.92;;;13.40;96.10;;;;;;5051049;28;20043;-75
2023/12/24 12:37:36;;;;;;;4.15;1.90;;;13.40;96.00;;;;;;5058280;28;20626;-75
2023/12/24 12:40:03;;;;;;;3.28;2.00;;;13.30;96.00;;;;;;5053810;28;20032;-75
2023/12/24 12:42:29;;;;;;;7.85;2.13;;;13.40;96.00;;;;;;5055950;28;20033;-75